sensor_id;sensor_type;location;lat;lon;timestamp;noise_LAeq;noise_LA_min;noise_LA_max;noise_LA01;noise_LA95
76339;Laerm;26644;50.248;19.032;2023-01-05T00:00:48;30.46;29.25;36.00;;
76339;Laerm;26644;50.248;19.032;2023-01-05T00:01:50;30.80;29.13;37.64;;
76339;Laerm;26644;50.248;19.032;2023-01-05T00:02:53;30.84;29.36;41.13;;
76339;Laerm;26644;50.248;19.032;2023-01-05T00:03:55;30.72;29.50;37.84;;
76339;Laerm;26644;50.248;19.032;2023-01-05T00:04:58;30.63;29.28;36.35;;
76339;Laerm;26644;50.248;19.032;2023-01-05T00:06:04;31.07;29.23;38.77;;
76339;Laerm;26644;50.248;19.032;2023-01-05T00:07:09;30.39;29.10;36.93;;
76339;Laerm;26644;50.248;19.032;2023-01-05T00:08:11;31.22;29.13;41.46;;
76339;Laerm;26644;50.248;19.032;2023-01-05T00:09:17;30.61;29.28;35.14;;
76339;Laerm;26644;50.248;19.032;2023-01-05T00:10:21;30.62;29.42;38.59;;
76339;Laerm;26644;50.248;19.032;2023-01-05T00:11:42;30.57;29.03;36.91;;
76339;Laerm;26644;50.248;19.032;2023-01-05T00:13:01;30.78;29.10;42.52;;
76339;Laerm;26644;50.248;19.032;2023-01-05T00:14:25;30.58;29.26;37.99;;
76339;Laerm;26644;50.248;19.032;2023-01-05T00:15:46;30.51;29.17;36.48;;
76339;Laerm;26644;50.248;19.032;2023-01-05T00:17:11;30.68;29.18;43.15;;
76339;Laerm;26644;50.248;19.032;2023-01-05T00:18:31;31.23;29.19;41.60;;
76339;Laerm;26644;50.248;19.032;2023-01-05T00:19:51;30.92;29.32;39.63;;
76339;Laerm;26644;50.248;19.032;2023-01-05T00:21:14;30.90;29.26;37.77;;
76339;Laerm;26644;50.248;19.032;2023-01-05T00:22:44;30.54;29.18;37.43;;
76339;Laerm;26644;50.248;19.032;2023-01-05T00:23:47;30.41;29.10;33.84;;
76339;Laerm;26644;50.248;19.032;2023-01-05T00:24:50;30.70;29.14;37.31;;
76339;Laerm;26644;50.248;19.032;2023-01-05T00:25:51;32.18;29.45;43.78;;
76339;Laerm;26644;50.248;19.032;2023-01-05T00:26:55;31.40;29.49;44.20;;
76339;Laerm;26644;50.248;19.032;2023-01-05T00:27:57;31.00;29.53;38.82;;
76339;Laerm;26644;50.248;19.032;2023-01-05T00:29:00;32.92;29.64;46.02;;
76339;Laerm;26644;50.248;19.032;2023-01-05T00:30:05;30.78;29.33;39.20;;
76339;Laerm;26644;50.248;19.032;2023-01-05T00:31:08;31.19;29.33;41.60;;
76339;Laerm;26644;50.248;19.032;2023-01-05T00:32:10;30.62;29.09;36.86;;
76339;Laerm;26644;50.248;19.032;2023-01-05T00:33:16;30.57;29.28;37.86;;
76339;Laerm;26644;50.248;19.032;2023-01-05T00:34:17;30.31;29.12;31.58;;
76339;Laerm;26644;50.248;19.032;2023-01-05T00:35:22;30.83;29.18;37.24;;
76339;Laerm;26644;50.248;19.032;2023-01-05T00:36:25;30.77;29.10;36.65;;
76339;Laerm;26644;50.248;19.032;2023-01-05T00:37:32;31.64;29.45;43.81;;
76339;Laerm;26644;50.248;19.032;2023-01-05T00:38:36;32.49;29.41;51.28;;
76339;Laerm;26644;50.248;19.032;2023-01-05T00:39:41;30.60;29.12;36.49;;
76339;Laerm;26644;50.248;19.032;2023-01-05T00:40:43;30.76;29.26;37.30;;
76339;Laerm;26644;50.248;19.032;2023-01-05T00:41:45;30.75;29.26;37.95;;
76339;Laerm;26644;50.248;19.032;2023-01-05T00:42:48;30.73;29.38;37.45;;
76339;Laerm;26644;50.248;19.032;2023-01-05T00:43:51;30.92;29.55;35.94;;
76339;Laerm;26644;50.248;19.032;2023-01-05T00:44:53;30.61;29.43;32.57;;
76339;Laerm;26644;50.248;19.032;2023-01-05T00:45:56;30.64;29.30;39.22;;
76339;Laerm;26644;50.248;19.032;2023-01-05T00:46:57;30.70;29.32;37.88;;
76339;Laerm;26644;50.248;19.032;2023-01-05T00:48:01;31.94;29.22;42.66;;
76339;Laerm;26644;50.248;19.032;2023-01-05T00:49:04;30.72;29.17;37.76;;
76339;Laerm;26644;50.248;19.032;2023-01-05T00:50:08;32.00;29.48;43.48;;
76339;Laerm;26644;50.248;19.032;2023-01-05T00:51:11;31.34;29.25;41.81;;
76339;Laerm;26644;50.248;19.032;2023-01-05T00:52:13;31.81;29.32;43.31;;
76339;Laerm;26644;50.248;19.032;2023-01-05T00:53:16;32.20;29.11;47.41;;
76339;Laerm;26644;50.248;19.032;2023-01-05T00:54:20;31.70;29.32;47.23;;
76339;Laerm;26644;50.248;19.032;2023-01-05T00:55:22;31.20;29.23;41.45;;
76339;Laerm;26644;50.248;19.032;2023-01-05T00:56:25;30.74;29.33;39.19;;
76339;Laerm;26644;50.248;19.032;2023-01-05T00:57:27;30.74;29.33;37.01;;
76339;Laerm;26644;50.248;19.032;2023-01-05T00:58:31;30.90;29.32;38.55;;
76339;Laerm;26644;50.248;19.032;2023-01-05T00:59:33;30.64;29.10;35.98;;
76339;Laerm;26644;50.248;19.032;2023-01-05T01:00:38;30.54;29.26;35.74;;
76339;Laerm;26644;50.248;19.032;2023-01-05T01:01:40;30.55;29.34;38.55;;
76339;Laerm;26644;50.248;19.032;2023-01-05T01:02:43;32.38;29.42;45.95;;
76339;Laerm;26644;50.248;19.032;2023-01-05T01:03:46;31.48;29.24;43.61;;
76339;Laerm;26644;50.248;19.032;2023-01-05T01:04:49;30.97;29.21;38.13;;
76339;Laerm;26644;50.248;19.032;2023-01-05T01:05:56;32.47;29.43;45.35;;
76339;Laerm;26644;50.248;19.032;2023-01-05T01:07:00;32.12;29.27;44.98;;
76339;Laerm;26644;50.248;19.032;2023-01-05T01:08:02;31.88;29.32;44.32;;
76339;Laerm;26644;50.248;19.032;2023-01-05T01:09:06;31.31;29.35;42.02;;
76339;Laerm;26644;50.248;19.032;2023-01-05T01:10:11;31.15;29.50;40.05;;
76339;Laerm;26644;50.248;19.032;2023-01-05T01:11:13;31.85;29.45;44.30;;
76339;Laerm;26644;50.248;19.032;2023-01-05T01:12:16;31.39;29.30;41.98;;
76339;Laerm;26644;50.248;19.032;2023-01-05T01:13:20;31.43;29.38;40.44;;
76339;Laerm;26644;50.248;19.032;2023-01-05T01:14:24;30.82;29.42;36.92;;
76339;Laerm;26644;50.248;19.032;2023-01-05T01:15:27;30.93;29.21;37.56;;
76339;Laerm;26644;50.248;19.032;2023-01-05T01:16:30;30.85;29.48;42.98;;
76339;Laerm;26644;50.248;19.032;2023-01-05T01:17:32;30.58;29.34;40.00;;
76339;Laerm;26644;50.248;19.032;2023-01-05T01:18:35;30.93;29.19;38.30;;
76339;Laerm;26644;50.248;19.032;2023-01-05T01:19:38;31.03;29.34;43.94;;
76339;Laerm;26644;50.248;19.032;2023-01-05T01:20:41;31.56;29.52;42.44;;
76339;Laerm;26644;50.248;19.032;2023-01-05T01:21:43;30.68;29.38;38.27;;
76339;Laerm;26644;50.248;19.032;2023-01-05T01:22:45;31.13;29.01;42.91;;
76339;Laerm;26644;50.248;19.032;2023-01-05T01:23:47;31.10;29.36;41.62;;
76339;Laerm;26644;50.248;19.032;2023-01-05T01:24:51;32.14;29.46;45.81;;
76339;Laerm;26644;50.248;19.032;2023-01-05T01:25:55;31.26;29.43;46.13;;
76339;Laerm;26644;50.248;19.032;2023-01-05T01:26:57;31.07;29.40;41.61;;
76339;Laerm;26644;50.248;19.032;2023-01-05T01:28:00;30.96;29.33;40.52;;
76339;Laerm;26644;50.248;19.032;2023-01-05T01:29:02;30.41;29.10;36.23;;
76339;Laerm;26644;50.248;19.032;2023-01-05T01:30:07;30.43;29.13;35.16;;
76339;Laerm;26644;50.248;19.032;2023-01-05T01:31:09;30.55;29.34;38.09;;
76339;Laerm;26644;50.248;19.032;2023-01-05T01:32:12;31.38;29.10;40.20;;
76339;Laerm;26644;50.248;19.032;2023-01-05T01:33:15;30.87;29.34;39.59;;
76339;Laerm;26644;50.248;19.032;2023-01-05T01:34:17;30.51;29.19;34.59;;
76339;Laerm;26644;50.248;19.032;2023-01-05T01:35:21;30.47;29.28;34.85;;
76339;Laerm;26644;50.248;19.032;2023-01-05T01:36:23;30.53;29.17;42.17;;
76339;Laerm;26644;50.248;19.032;2023-01-05T01:37:26;30.58;29.09;36.49;;
76339;Laerm;26644;50.248;19.032;2023-01-05T01:38:30;31.13;29.30;41.65;;
76339;Laerm;26644;50.248;19.032;2023-01-05T01:39:33;31.12;29.04;38.75;;
76339;Laerm;26644;50.248;19.032;2023-01-05T01:40:43;30.84;29.16;40.79;;
76339;Laerm;26644;50.248;19.032;2023-01-05T01:41:47;30.70;29.40;38.63;;
76339;Laerm;26644;50.248;19.032;2023-01-05T01:42:49;30.74;29.32;39.46;;
76339;Laerm;26644;50.248;19.032;2023-01-05T01:43:55;30.67;29.34;39.79;;
76339;Laerm;26644;50.248;19.032;2023-01-05T01:45:16;30.81;29.25;41.53;;
76339;Laerm;26644;50.248;19.032;2023-01-05T01:46:23;31.70;29.37;45.91;;
76339;Laerm;26644;50.248;19.032;2023-01-05T01:47:35;31.42;29.32;40.78;;
76339;Laerm;26644;50.248;19.032;2023-01-05T01:48:47;30.80;29.24;39.17;;
76339;Laerm;26644;50.248;19.032;2023-01-05T01:49:54;30.50;29.22;35.61;;
76339;Laerm;26644;50.248;19.032;2023-01-05T01:51:04;30.68;29.30;36.12;;
76339;Laerm;26644;50.248;19.032;2023-01-05T01:52:09;33.33;29.69;47.93;;
76339;Laerm;26644;50.248;19.032;2023-01-05T01:53:20;32.50;29.38;47.41;;
76339;Laerm;26644;50.248;19.032;2023-01-05T01:54:25;31.44;29.05;39.94;;
76339;Laerm;26644;50.248;19.032;2023-01-05T01:55:29;30.78;29.29;35.91;;
76339;Laerm;26644;50.248;19.032;2023-01-05T01:56:39;31.62;29.21;41.47;;
76339;Laerm;26644;50.248;19.032;2023-01-05T01:57:48;30.44;29.17;36.14;;
76339;Laerm;26644;50.248;19.032;2023-01-05T01:58:53;30.38;29.31;31.61;;
76339;Laerm;26644;50.248;19.032;2023-01-05T02:00:00;32.79;29.55;48.90;;
76339;Laerm;26644;50.248;19.032;2023-01-05T02:01:05;31.44;29.40;39.57;;
76339;Laerm;26644;50.248;19.032;2023-01-05T02:02:08;31.80;29.34;42.65;;
76339;Laerm;26644;50.248;19.032;2023-01-05T02:03:13;30.65;29.18;39.08;;
76339;Laerm;26644;50.248;19.032;2023-01-05T02:04:19;30.81;29.16;38.77;;
76339;Laerm;26644;50.248;19.032;2023-01-05T02:05:27;30.91;29.42;40.76;;
76339;Laerm;26644;50.248;19.032;2023-01-05T02:06:31;30.75;29.35;37.15;;
76339;Laerm;26644;50.248;19.032;2023-01-05T02:07:41;31.22;29.57;41.66;;
76339;Laerm;26644;50.248;19.032;2023-01-05T02:08:48;31.78;29.47;42.06;;
76339;Laerm;26644;50.248;19.032;2023-01-05T02:09:51;33.41;29.46;51.77;;
76339;Laerm;26644;50.248;19.032;2023-01-05T02:11:16;32.07;29.34;44.33;;
76339;Laerm;26644;50.248;19.032;2023-01-05T02:12:40;31.56;29.08;47.23;;
76339;Laerm;26644;50.248;19.032;2023-01-05T02:14:10;31.78;29.27;45.25;;
76339;Laerm;26644;50.248;19.032;2023-01-05T02:15:32;31.45;29.28;42.75;;
76339;Laerm;26644;50.248;19.032;2023-01-05T02:16:56;31.77;28.90;46.62;;
76339;Laerm;26644;50.248;19.032;2023-01-05T02:18:22;30.92;29.15;39.02;;
76339;Laerm;26644;50.248;19.032;2023-01-05T02:20:23;32.42;29.41;44.55;;
76339;Laerm;26644;50.248;19.032;2023-01-05T02:21:54;31.12;29.47;43.90;;
76339;Laerm;26644;50.248;19.032;2023-01-05T02:27:46;31.24;29.34;46.00;;
76339;Laerm;26644;50.248;19.032;2023-01-05T02:29:30;32.97;29.37;53.70;;
76339;Laerm;26644;50.248;19.032;2023-01-05T02:31:17;32.44;29.32;48.71;;
76339;Laerm;26644;50.248;19.032;2023-01-05T02:32:34;32.36;29.39;47.56;;
76339;Laerm;26644;50.248;19.032;2023-01-05T02:33:54;31.17;29.28;40.53;;
76339;Laerm;26644;50.248;19.032;2023-01-05T02:35:18;31.26;29.40;42.74;;
76339;Laerm;26644;50.248;19.032;2023-01-05T02:36:31;32.44;29.42;47.01;;
76339;Laerm;26644;50.248;19.032;2023-01-05T02:37:47;32.48;29.29;46.36;;
76339;Laerm;26644;50.248;19.032;2023-01-05T02:39:01;32.81;29.42;47.48;;
76339;Laerm;26644;50.248;19.032;2023-01-05T02:40:15;30.42;29.11;35.20;;
76339;Laerm;26644;50.248;19.032;2023-01-05T02:41:30;30.71;29.41;38.39;;
76339;Laerm;26644;50.248;19.032;2023-01-05T02:42:40;31.33;29.21;41.81;;
76339;Laerm;26644;50.248;19.032;2023-01-05T02:43:46;30.63;29.16;36.21;;
76339;Laerm;26644;50.248;19.032;2023-01-05T02:44:48;30.75;29.14;41.17;;
76339;Laerm;26644;50.248;19.032;2023-01-05T02:45:52;30.80;29.21;38.35;;
76339;Laerm;26644;50.248;19.032;2023-01-05T02:47:05;30.53;29.22;37.05;;
76339;Laerm;26644;50.248;19.032;2023-01-05T02:48:10;30.59;29.29;38.39;;
76339;Laerm;26644;50.248;19.032;2023-01-05T02:49:17;30.43;29.33;33.68;;
76339;Laerm;26644;50.248;19.032;2023-01-05T02:50:27;31.99;29.38;45.41;;
76339;Laerm;26644;50.248;19.032;2023-01-05T02:51:36;31.36;29.32;44.54;;
76339;Laerm;26644;50.248;19.032;2023-01-05T02:52:51;30.93;29.40;43.49;;
76339;Laerm;26644;50.248;19.032;2023-01-05T02:54:05;31.32;29.43;40.48;;
76339;Laerm;26644;50.248;19.032;2023-01-05T02:55:16;31.69;29.35;42.87;;
76339;Laerm;26644;50.248;19.032;2023-01-05T02:56:26;30.80;29.44;39.98;;
76339;Laerm;26644;50.248;19.032;2023-01-05T02:57:38;31.19;29.29;41.97;;
76339;Laerm;26644;50.248;19.032;2023-01-05T02:59:02;31.33;29.26;43.54;;
76339;Laerm;26644;50.248;19.032;2023-01-05T03:00:11;31.19;29.41;40.75;;
76339;Laerm;26644;50.248;19.032;2023-01-05T03:01:28;30.83;29.35;39.21;;
76339;Laerm;26644;50.248;19.032;2023-01-05T03:02:34;30.71;29.41;36.45;;
76339;Laerm;26644;50.248;19.032;2023-01-05T03:03:44;30.58;28.88;37.80;;
76339;Laerm;26644;50.248;19.032;2023-01-05T03:04:57;30.87;29.27;42.32;;
76339;Laerm;26644;50.248;19.032;2023-01-05T03:06:13;30.84;29.33;40.42;;
76339;Laerm;26644;50.248;19.032;2023-01-05T03:07:30;30.48;29.37;34.06;;
76339;Laerm;26644;50.248;19.032;2023-01-05T03:08:41;30.54;29.30;36.09;;
76339;Laerm;26644;50.248;19.032;2023-01-05T03:09:50;31.15;29.31;42.59;;
76339;Laerm;26644;50.248;19.032;2023-01-05T03:11:02;31.02;29.29;42.21;;
76339;Laerm;26644;50.248;19.032;2023-01-05T03:12:32;31.61;29.20;47.81;;
76339;Laerm;26644;50.248;19.032;2023-01-05T03:14:12;30.83;29.15;41.23;;
76339;Laerm;26644;50.248;19.032;2023-01-05T03:15:27;30.56;29.25;38.69;;
76339;Laerm;26644;50.248;19.032;2023-01-05T03:16:35;30.45;29.06;34.55;;
76339;Laerm;26644;50.248;19.032;2023-01-05T03:17:49;30.64;29.34;35.87;;
76339;Laerm;26644;50.248;19.032;2023-01-05T03:18:58;30.64;29.24;38.36;;
76339;Laerm;26644;50.248;19.032;2023-01-05T03:20:26;30.50;29.29;39.09;;
76339;Laerm;26644;50.248;19.032;2023-01-05T03:21:31;30.74;29.27;40.03;;
76339;Laerm;26644;50.248;19.032;2023-01-05T03:22:56;31.49;29.34;45.28;;
76339;Laerm;26644;50.248;19.032;2023-01-05T03:24:17;30.57;29.26;36.05;;
76339;Laerm;26644;50.248;19.032;2023-01-05T03:25:39;30.39;29.29;31.68;;
76339;Laerm;26644;50.248;19.032;2023-01-05T03:27:06;30.43;29.32;33.51;;
76339;Laerm;26644;50.248;19.032;2023-01-05T03:28:38;30.50;29.33;33.58;;
76339;Laerm;26644;50.248;19.032;2023-01-05T03:30:05;30.45;29.14;35.20;;
76339;Laerm;26644;50.248;19.032;2023-01-05T03:31:35;30.51;29.26;36.73;;
76339;Laerm;26644;50.248;19.032;2023-01-05T03:33:08;30.60;29.41;35.14;;
76339;Laerm;26644;50.248;19.032;2023-01-05T03:34:47;30.45;29.04;32.12;;
76339;Laerm;26644;50.248;19.032;2023-01-05T03:36:15;30.48;28.92;33.69;;
76339;Laerm;26644;50.248;19.032;2023-01-05T03:37:27;31.83;29.39;43.95;;
76339;Laerm;26644;50.248;19.032;2023-01-05T03:38:40;30.61;29.01;40.31;;
76339;Laerm;26644;50.248;19.032;2023-01-05T03:39:46;30.64;29.31;36.25;;
76339;Laerm;26644;50.248;19.032;2023-01-05T03:40:53;30.80;29.29;38.04;;
76339;Laerm;26644;50.248;19.032;2023-01-05T03:41:59;30.44;29.12;32.94;;
76339;Laerm;26644;50.248;19.032;2023-01-05T03:43:04;30.47;29.34;32.41;;
76339;Laerm;26644;50.248;19.032;2023-01-05T03:44:09;30.66;29.46;39.61;;
76339;Laerm;26644;50.248;19.032;2023-01-05T03:45:17;30.65;29.39;36.85;;
76339;Laerm;26644;50.248;19.032;2023-01-05T03:46:21;30.55;29.28;36.37;;
76339;Laerm;26644;50.248;19.032;2023-01-05T03:47:24;30.80;29.44;40.07;;
76339;Laerm;26644;50.248;19.032;2023-01-05T03:48:28;30.56;29.41;36.06;;
76339;Laerm;26644;50.248;19.032;2023-01-05T03:49:31;30.59;29.35;36.61;;
76339;Laerm;26644;50.248;19.032;2023-01-05T03:50:35;30.53;29.04;37.92;;
76339;Laerm;26644;50.248;19.032;2023-01-05T03:51:37;30.49;29.44;36.03;;
76339;Laerm;26644;50.248;19.032;2023-01-05T03:52:40;30.44;29.22;31.42;;
76339;Laerm;26644;50.248;19.032;2023-01-05T03:53:42;30.50;29.41;38.11;;
76339;Laerm;26644;50.248;19.032;2023-01-05T03:54:45;30.46;29.33;32.90;;
76339;Laerm;26644;50.248;19.032;2023-01-05T03:55:49;30.43;29.40;33.47;;
76339;Laerm;26644;50.248;19.032;2023-01-05T03:56:52;30.41;29.19;31.36;;
76339;Laerm;26644;50.248;19.032;2023-01-05T03:57:55;30.50;29.12;34.06;;
76339;Laerm;26644;50.248;19.032;2023-01-05T03:58:59;30.45;29.36;34.61;;
76339;Laerm;26644;50.248;19.032;2023-01-05T04:00:01;30.43;29.24;33.57;;
76339;Laerm;26644;50.248;19.032;2023-01-05T04:01:08;30.48;29.07;31.48;;
76339;Laerm;26644;50.248;19.032;2023-01-05T04:02:12;30.44;29.31;31.62;;
76339;Laerm;26644;50.248;19.032;2023-01-05T04:03:14;30.57;29.49;32.08;;
76339;Laerm;26644;50.248;19.032;2023-01-05T04:04:19;30.50;29.45;33.57;;
76339;Laerm;26644;50.248;19.032;2023-01-05T04:05:21;30.54;29.25;33.82;;
76339;Laerm;26644;50.248;19.032;2023-01-05T04:06:25;30.74;29.42;36.50;;
76339;Laerm;26644;50.248;19.032;2023-01-05T04:07:27;30.70;29.39;37.68;;
76339;Laerm;26644;50.248;19.032;2023-01-05T04:08:30;30.41;29.23;33.31;;
76339;Laerm;26644;50.248;19.032;2023-01-05T04:09:33;30.53;29.40;37.19;;
76339;Laerm;26644;50.248;19.032;2023-01-05T04:10:36;30.54;29.56;32.74;;
76339;Laerm;26644;50.248;19.032;2023-01-05T04:11:40;30.55;29.43;33.72;;
76339;Laerm;26644;50.248;19.032;2023-01-05T04:12:43;30.84;29.53;39.94;;
76339;Laerm;26644;50.248;19.032;2023-01-05T04:13:49;30.67;29.43;35.29;;
76339;Laerm;26644;50.248;19.032;2023-01-05T04:14:52;30.55;29.52;32.91;;
76339;Laerm;26644;50.248;19.032;2023-01-05T04:15:54;30.60;29.38;35.84;;
76339;Laerm;26644;50.248;19.032;2023-01-05T04:16:58;30.61;29.48;33.36;;
76339;Laerm;26644;50.248;19.032;2023-01-05T04:18:00;30.59;29.37;36.66;;
76339;Laerm;26644;50.248;19.032;2023-01-05T04:19:02;30.55;29.27;35.18;;
76339;Laerm;26644;50.248;19.032;2023-01-05T04:20:08;30.77;29.51;37.32;;
76339;Laerm;26644;50.248;19.032;2023-01-05T04:21:12;30.64;29.45;32.88;;
76339;Laerm;26644;50.248;19.032;2023-01-05T04:22:14;30.59;29.33;31.93;;
76339;Laerm;26644;50.248;19.032;2023-01-05T04:23:18;30.58;29.29;35.82;;
76339;Laerm;26644;50.248;19.032;2023-01-05T04:24:20;30.64;29.46;37.86;;
76339;Laerm;26644;50.248;19.032;2023-01-05T04:25:23;30.59;29.50;38.11;;
76339;Laerm;26644;50.248;19.032;2023-01-05T04:26:26;30.49;29.48;32.01;;
76339;Laerm;26644;50.248;19.032;2023-01-05T04:27:28;30.54;29.39;32.68;;
76339;Laerm;26644;50.248;19.032;2023-01-05T04:28:32;30.52;29.38;32.35;;
76339;Laerm;26644;50.248;19.032;2023-01-05T04:29:35;30.51;29.51;33.56;;
76339;Laerm;26644;50.248;19.032;2023-01-05T04:30:41;30.56;29.41;32.98;;
76339;Laerm;26644;50.248;19.032;2023-01-05T04:31:43;30.61;29.37;35.96;;
76339;Laerm;26644;50.248;19.032;2023-01-05T04:32:47;30.69;29.70;34.05;;
76339;Laerm;26644;50.248;19.032;2023-01-05T04:33:50;30.55;29.15;31.77;;
76339;Laerm;26644;50.248;19.032;2023-01-05T04:34:57;30.56;29.41;31.70;;
76339;Laerm;26644;50.248;19.032;2023-01-05T04:36:00;30.49;29.40;32.13;;
76339;Laerm;26644;50.248;19.032;2023-01-05T04:37:05;30.42;29.22;31.41;;
76339;Laerm;26644;50.248;19.032;2023-01-05T04:38:10;30.57;29.60;31.78;;
76339;Laerm;26644;50.248;19.032;2023-01-05T04:39:13;30.67;29.39;32.64;;
76339;Laerm;26644;50.248;19.032;2023-01-05T04:40:15;30.55;29.44;31.59;;
76339;Laerm;26644;50.248;19.032;2023-01-05T04:41:24;30.55;29.16;37.04;;
76339;Laerm;26644;50.248;19.032;2023-01-05T04:42:28;30.51;29.38;31.51;;
76339;Laerm;26644;50.248;19.032;2023-01-05T04:43:32;30.64;29.43;33.42;;
76339;Laerm;26644;50.248;19.032;2023-01-05T04:44:36;30.67;29.53;31.65;;
76339;Laerm;26644;50.248;19.032;2023-01-05T04:45:40;30.57;29.50;32.21;;
76339;Laerm;26644;50.248;19.032;2023-01-05T04:46:42;30.58;29.47;32.35;;
76339;Laerm;26644;50.248;19.032;2023-01-05T04:47:47;30.70;29.64;31.72;;
76339;Laerm;26644;50.248;19.032;2023-01-05T04:48:53;30.51;29.39;31.47;;
76339;Laerm;26644;50.248;19.032;2023-01-05T04:49:56;30.61;29.53;32.07;;
76339;Laerm;26644;50.248;19.032;2023-01-05T04:51:00;30.55;29.31;31.58;;
76339;Laerm;26644;50.248;19.032;2023-01-05T04:52:07;30.55;29.55;34.28;;
76339;Laerm;26644;50.248;19.032;2023-01-05T04:53:10;30.57;29.30;32.63;;
76339;Laerm;26644;50.248;19.032;2023-01-05T04:54:16;30.75;29.75;33.30;;
76339;Laerm;26644;50.248;19.032;2023-01-05T04:55:18;31.02;29.48;38.14;;
76339;Laerm;26644;50.248;19.032;2023-01-05T04:56:22;30.60;29.52;32.69;;
76339;Laerm;26644;50.248;19.032;2023-01-05T04:57:24;30.98;29.36;43.78;;
76339;Laerm;26644;50.248;19.032;2023-01-05T04:58:27;30.70;29.30;34.58;;
76339;Laerm;26644;50.248;19.032;2023-01-05T04:59:33;31.19;29.70;35.37;;
76339;Laerm;26644;50.248;19.032;2023-01-05T05:00:38;30.51;29.42;35.04;;
76339;Laerm;26644;50.248;19.032;2023-01-05T05:01:41;30.87;29.44;38.85;;
76339;Laerm;26644;50.248;19.032;2023-01-05T05:02:47;30.59;29.51;34.39;;
76339;Laerm;26644;50.248;19.032;2023-01-05T05:03:49;30.51;29.21;35.24;;
76339;Laerm;26644;50.248;19.032;2023-01-05T05:04:55;30.61;29.27;38.79;;
76339;Laerm;26644;50.248;19.032;2023-01-05T05:05:57;30.64;29.38;34.61;;
76339;Laerm;26644;50.248;19.032;2023-01-05T05:07:04;30.65;29.41;34.61;;
76339;Laerm;26644;50.248;19.032;2023-01-05T05:08:08;30.50;29.26;33.40;;
76339;Laerm;26644;50.248;19.032;2023-01-05T05:09:11;30.50;29.40;34.03;;
76339;Laerm;26644;50.248;19.032;2023-01-05T05:10:15;30.72;29.33;39.07;;
76339;Laerm;26644;50.248;19.032;2023-01-05T05:11:18;30.46;29.36;33.82;;
76339;Laerm;26644;50.248;19.032;2023-01-05T05:12:23;30.51;29.48;33.17;;
76339;Laerm;26644;50.248;19.032;2023-01-05T05:13:26;30.53;29.49;31.60;;
76339;Laerm;26644;50.248;19.032;2023-01-05T05:14:29;30.44;29.39;31.64;;
76339;Laerm;26644;50.248;19.032;2023-01-05T05:15:34;30.60;29.30;33.62;;
76339;Laerm;26644;50.248;19.032;2023-01-05T05:16:38;30.51;29.37;32.01;;
76339;Laerm;26644;50.248;19.032;2023-01-05T05:17:43;30.61;29.52;32.41;;
76339;Laerm;26644;50.248;19.032;2023-01-05T05:18:47;30.48;29.31;32.80;;
76339;Laerm;26644;50.248;19.032;2023-01-05T05:19:55;30.49;29.17;32.15;;
76339;Laerm;26644;50.248;19.032;2023-01-05T05:20:58;30.47;29.44;31.85;;
76339;Laerm;26644;50.248;19.032;2023-01-05T05:22:06;30.58;29.47;34.75;;
76339;Laerm;26644;50.248;19.032;2023-01-05T05:23:09;30.55;29.28;33.17;;
76339;Laerm;26644;50.248;19.032;2023-01-05T05:24:11;30.57;29.40;31.61;;
76339;Laerm;26644;50.248;19.032;2023-01-05T05:25:18;30.51;29.45;33.10;;
76339;Laerm;26644;50.248;19.032;2023-01-05T05:26:23;30.51;29.57;31.46;;
76339;Laerm;26644;50.248;19.032;2023-01-05T05:27:26;30.48;29.43;32.83;;
76339;Laerm;26644;50.248;19.032;2023-01-05T05:28:28;30.49;29.50;31.57;;
76339;Laerm;26644;50.248;19.032;2023-01-05T05:29:31;30.55;29.35;36.16;;
76339;Laerm;26644;50.248;19.032;2023-01-05T05:30:33;30.73;29.34;36.50;;
76339;Laerm;26644;50.248;19.032;2023-01-05T05:31:36;30.57;29.49;32.82;;
76339;Laerm;26644;50.248;19.032;2023-01-05T05:32:38;30.57;29.40;33.94;;
76339;Laerm;26644;50.248;19.032;2023-01-05T05:33:41;30.60;29.36;34.54;;
76339;Laerm;26644;50.248;19.032;2023-01-05T05:34:43;30.61;29.49;35.70;;
76339;Laerm;26644;50.248;19.032;2023-01-05T05:35:46;30.79;29.33;39.29;;
76339;Laerm;26644;50.248;19.032;2023-01-05T05:36:48;30.55;29.32;33.15;;
76339;Laerm;26644;50.248;19.032;2023-01-05T05:37:52;30.55;29.28;33.45;;
76339;Laerm;26644;50.248;19.032;2023-01-05T05:38:54;30.64;29.50;33.70;;
76339;Laerm;26644;50.248;19.032;2023-01-05T05:39:58;30.61;29.50;34.45;;
76339;Laerm;26644;50.248;19.032;2023-01-05T05:41:00;30.59;29.52;34.87;;
76339;Laerm;26644;50.248;19.032;2023-01-05T05:42:04;30.60;29.44;33.93;;
76339;Laerm;26644;50.248;19.032;2023-01-05T05:43:06;30.78;29.67;32.46;;
76339;Laerm;26644;50.248;19.032;2023-01-05T05:44:09;30.94;29.33;33.50;;
76339;Laerm;26644;50.248;19.032;2023-01-05T05:45:11;30.57;29.19;34.55;;
76339;Laerm;26644;50.248;19.032;2023-01-05T05:46:13;30.57;29.42;32.37;;
76339;Laerm;26644;50.248;19.032;2023-01-05T05:47:16;30.59;29.51;32.40;;
76339;Laerm;26644;50.248;19.032;2023-01-05T05:48:19;30.65;29.29;35.60;;
76339;Laerm;26644;50.248;19.032;2023-01-05T05:49:20;30.49;29.40;32.46;;
76339;Laerm;26644;50.248;19.032;2023-01-05T05:50:23;30.47;29.39;31.66;;
76339;Laerm;26644;50.248;19.032;2023-01-05T05:51:26;30.55;29.24;35.58;;
76339;Laerm;26644;50.248;19.032;2023-01-05T05:52:29;30.50;29.49;32.52;;
76339;Laerm;26644;50.248;19.032;2023-01-05T05:53:33;30.52;29.12;36.97;;
76339;Laerm;26644;50.248;19.032;2023-01-05T05:54:36;30.53;29.28;34.98;;
76339;Laerm;26644;50.248;19.032;2023-01-05T05:55:38;30.47;29.42;32.25;;
76339;Laerm;26644;50.248;19.032;2023-01-05T05:56:40;30.47;29.44;31.74;;
76339;Laerm;26644;50.248;19.032;2023-01-05T05:57:43;30.62;29.50;38.95;;
76339;Laerm;26644;50.248;19.032;2023-01-05T05:58:46;30.83;29.33;47.78;;
76339;Laerm;26644;50.248;19.032;2023-01-05T05:59:47;30.42;29.34;31.78;;
76339;Laerm;26644;50.248;19.032;2023-01-05T06:00:50;30.40;29.21;31.65;;
76339;Laerm;26644;50.248;19.032;2023-01-05T06:01:52;30.49;29.17;32.65;;
76339;Laerm;26644;50.248;19.032;2023-01-05T06:02:56;30.49;29.54;31.49;;
76339;Laerm;26644;50.248;19.032;2023-01-05T06:03:57;30.49;29.21;31.55;;
76339;Laerm;26644;50.248;19.032;2023-01-05T06:05:00;30.43;29.34;31.63;;
76339;Laerm;26644;50.248;19.032;2023-01-05T06:06:03;30.50;29.35;34.16;;
76339;Laerm;26644;50.248;19.032;2023-01-05T06:07:06;30.50;29.36;35.71;;
76339;Laerm;26644;50.248;19.032;2023-01-05T06:08:08;30.46;29.22;31.38;;
76339;Laerm;26644;50.248;19.032;2023-01-05T06:09:13;30.47;29.32;31.88;;
76339;Laerm;26644;50.248;19.032;2023-01-05T06:10:15;30.50;29.37;31.64;;
76339;Laerm;26644;50.248;19.032;2023-01-05T06:11:18;30.44;29.33;31.72;;
76339;Laerm;26644;50.248;19.032;2023-01-05T06:12:19;30.45;29.44;33.08;;
76339;Laerm;26644;50.248;19.032;2023-01-05T06:13:24;30.42;29.45;32.72;;
76339;Laerm;26644;50.248;19.032;2023-01-05T06:14:26;30.47;29.48;32.07;;
76339;Laerm;26644;50.248;19.032;2023-01-05T06:15:28;30.45;29.28;31.89;;